Los Juries, Argentina
Current Conditions -  °F | °C
As of 6:00 PM on Thursday 20 Nov 2014 (Local Time) from SARE Reporting Station
Broken Clouds Broken Clouds  
Wind Chill: 86°   Ceiling: 20000
Heat Index: 88°   Visibility: 6mi
Dew Point: 66°   Wind: 3mph
Humidity: 51%   Direction: 70°ENE
Pressure: 29.77"   Gusts: NA
Location:  28.47°S, 62.1°W
Report Text: SARE 202100Z 07003KT 9999 SCT025 BKN200 30/19 Q1008
Loading
Personal Weather Stations






























Interactive Weather Map New forecast layout! Learn more

10-Day Weather Forecast

Advertisements
Track Severe Weather on mobile